Аэропорт: Братск. Братск

ICAO: UIBB

METAR:
2021-04-21 21:30:00
UIBB 212130Z AUTO 02002MPS 9999 // NCD M10/M16 Q1028 RMK QFE728/0970
METAR:
2021-04-21 20:00:00
TAF UIBB 212000Z 2121/2221 04003G08MPS 9999 FEW003